Time;durP1;ratioP1;P1;durP2;ratioP2;P2;SDS_P1;SDS_P2;PMS_P1;PMS_P2;Temp;Humidity;BMP_temperature;BMP_pressure;BME280_temperature;BME280_humidity;BME280_pressure;Samples;Min_cycle;Max_cycle;Signal;HPM_P1;HPM_P2
2022/06/29 00:02:06;;;;;;;19.23;8.13;;;;;;;-144.47;47.25;53118.28;5031386;28;20029;-72
2022/06/29 00:04:31;;;;;;;13.50;7.72;;;;;;;-144.47;47.49;53179.84;5031654;28;20042;-69
2022/06/29 00:06:57;;;;;;;16.42;7.93;;;;;;;-144.47;47.49;53144.09;5030539;28;20022;-69
2022/06/29 00:09:22;;;;;;;13.90;8.20;;;;;;;-144.47;47.71;53169.91;5025683;28;20101;-72
2022/06/29 00:11:48;;;;;;;15.35;8.05;;;;;;;-144.47;47.90;53150.06;5030490;28;20032;-70
2022/06/29 00:14:13;;;;;;;14.82;7.65;;;;;;;-144.47;48.21;53169.91;5030849;28;20032;-68
2022/06/29 00:16:38;;;;;;;19.35;9.05;;;;;;;-144.47;48.44;53056.69;5030845;28;20445;-71
2022/06/29 00:19:04;;;;;;;16.63;8.13;;;;;;;-144.47;48.64;53118.28;5030836;28;20030;-71
2022/06/29 00:21:29;;;;;;;16.20;8.55;;;;;;;-144.47;48.82;53154.03;5029886;28;20025;-67
2022/06/29 00:23:55;;;;;;;17.50;8.50;;;;;;;-144.47;48.94;53148.06;5030080;28;20025;-70
2022/06/29 00:26:20;;;;;;;17.05;8.77;;;;;;;-144.47;48.98;53154.03;5029563;28;20450;-70
2022/06/29 00:28:45;;;;;;;16.10;8.27;;;;;;;-144.47;49.18;53146.09;5045100;22;20049;-70
2022/06/29 00:31:11;;;;;;;15.15;8.27;;;;;;;-144.47;49.22;53158.00;5049805;28;20098;-70
2022/06/29 00:33:36;;;;;;;17.08;8.18;;;;;;;-144.47;49.39;53134.16;5031128;28;20410;-69
2022/06/29 00:36:01;;;;;;;23.10;8.18;;;;;;;-144.47;49.48;53177.88;5044445;28;20029;-71
2022/06/29 00:38:27;;;;;;;17.20;8.48;;;;;;;-144.47;49.66;53152.03;5049130;28;20033;-70
2022/06/29 00:40:52;;;;;;;18.42;9.55;;;;;;;-144.47;49.80;53181.84;5050181;28;20024;-67
2022/06/29 00:43:18;;;;;;;20.08;8.27;;;;;;;-144.47;49.93;53175.88;5050460;28;20023;-70
2022/06/29 00:45:43;;;;;;;15.57;8.85;;;;;;;-144.47;49.98;53126.22;5050225;28;20025;-67
2022/06/29 00:48:08;;;;;;;16.77;8.18;;;;;;;-144.47;50.16;53126.22;5049815;28;20394;-67
2022/06/29 00:50:37;;;;;;;15.15;8.85;;;;;;;-144.47;50.32;53165.94;5050153;28;20058;-69
2022/06/29 00:53:05;;;;;;;13.13;8.45;;;;;;;-144.47;50.41;53175.88;5050395;28;20491;-66
2022/06/29 00:55:36;;;;;;;15.68;8.80;;;;;;;-144.47;50.54;53142.09;5050035;28;20032;-70
2022/06/29 00:58:05;;;;;;;15.57;8.45;;;;;;;-144.47;50.76;53138.13;5050163;28;20044;-67
2022/06/29 01:00:31;;;;;;;20.15;8.90;;;;;;;-144.47;50.85;53213.63;5050084;28;20031;-68
2022/06/29 01:02:59;;;;;;;17.10;8.23;;;;;;;-144.47;51.14;53150.06;5050306;28;20028;-71
2022/06/29 01:05:26;;;;;;;15.02;8.88;;;;;;;-144.47;51.09;53193.75;5048744;28;20032;-66
2022/06/29 01:07:52;;;;;;;18.33;9.13;;;;;;;-144.47;51.27;53158.00;5049604;28;20033;-71
2022/06/29 01:10:18;;;;;;;17.55;9.25;;;;;;;-144.47;51.41;53163.97;5043385;28;20016;-70
2022/06/29 01:12:44;;;;;;;15.65;8.57;;;;;;;-144.47;51.62;53150.06;5048594;28;20029;-68
2022/06/29 01:15:09;;;;;;;16.08;8.27;;;;;;;-144.47;51.73;53154.03;5049779;28;20028;-70
2022/06/29 01:17:35;;;;;;;24.30;11.63;;;;;;;-144.47;51.90;53181.84;5049820;28;20017;-68
2022/06/29 01:20:00;;;;;;;19.33;9.77;;;;;;;-144.47;52.09;53161.97;5048446;28;20029;-69
2022/06/29 01:22:27;;;;;;;17.30;9.40;;;;;;;-144.47;52.06;53183.81;5047276;28;20017;-74
2022/06/29 01:24:53;;;;;;;24.23;9.63;;;;;;;-144.47;52.27;53175.88;5049679;28;20083;-72
2022/06/29 01:27:20;;;;;;;17.25;9.95;;;;;;;-144.47;52.37;53140.13;5049589;28;20025;-71
2022/06/29 01:29:45;;;;;;;19.45;8.95;;;;;;;-144.47;52.23;53154.03;5049266;28;20021;-71
2022/06/29 01:32:11;;;;;;;15.45;8.60;;;;;;;-144.47;52.34;53140.13;5049555;28;20109;-69
2022/06/29 01:34:37;;;;;;;16.58;8.60;;;;;;;-144.47;52.22;53154.03;5049500;28;20013;-72
2022/06/29 01:37:04;;;;;;;17.48;9.00;;;;;;;-144.47;52.25;53165.94;5049158;28;20087;-73
2022/06/29 01:39:29;;;;;;;14.10;8.15;;;;;;;-144.47;52.59;53177.88;5049188;28;20078;-70
2022/06/29 01:41:55;;;;;;;16.85;9.30;;;;;;;-144.47;52.56;53177.88;5049758;28;20033;-71
2022/06/29 01:44:21;;;;;;;19.15;9.60;;;;;;;-144.47;52.74;53158.00;5049642;28;20020;-69
2022/06/29 01:46:46;;;;;;;19.95;8.43;;;;;;;-144.47;52.61;53163.97;5048007;28;20067;-71
2022/06/29 01:49:12;;;;;;;24.33;9.50;;;;;;;-144.47;52.84;53185.81;5048245;28;20025;-71
2022/06/29 01:51:37;;;;;;;18.65;9.07;;;;;;;-144.47;52.84;53169.91;5049373;28;20025;-70
2022/06/29 01:54:03;;;;;;;18.15;8.32;;;;;;;-144.47;52.97;53195.75;5048894;28;20021;-70
2022/06/29 01:56:28;;;;;;;20.70;8.77;;;;;;;-144.47;53.10;53197.72;5047128;28;20037;-70
2022/06/29 01:58:54;;;;;;;19.75;9.38;;;;;;;-144.47;53.32;53199.72;5048632;28;20100;-67
2022/06/29 02:01:19;;;;;;;18.45;8.13;;;;;;;-144.47;53.41;53150.06;5048954;28;20078;-67
2022/06/29 02:03:44;;;;;;;14.32;8.63;;;;;;;-144.47;53.45;53195.75;5049055;28;20033;-68
2022/06/29 02:06:10;;;;;;;21.75;9.32;;;;;;;-144.47;53.63;53211.63;5048908;28;20110;-71
2022/06/29 02:08:36;;;;;;;13.05;8.38;;;;;;;-144.47;53.77;53199.72;5044955;28;20075;-69
2022/06/29 02:11:02;;;;;;;16.63;8.65;;;;;;;-144.47;53.90;53150.06;5039131;28;20474;-71
2022/06/29 02:13:28;;;;;;;18.10;8.90;;;;;;;-144.47;54.09;53165.94;5049107;28;20021;-70
2022/06/29 02:15:54;;;;;;;16.77;8.30;;;;;;;-144.47;54.31;53156.00;5048892;28;20371;-68
2022/06/29 02:18:20;;;;;;;16.83;8.45;;;;;;;-144.47;54.33;53197.72;5047467;28;20075;-69
2022/06/29 02:20:45;;;;;;;17.42;8.73;;;;;;;-144.47;54.47;53173.88;5050351;28;20406;-69
2022/06/29 02:23:11;;;;;;;15.95;8.13;;;;;;;-144.47;54.55;53150.06;5052879;28;20550;-70
2022/06/29 02:25:36;;;;;;;18.52;8.85;;;;;;;-144.47;54.55;53181.84;5052994;28;20027;-70
2022/06/29 02:28:02;;;;;;;22.50;8.23;;;;;;;-144.47;54.48;53169.91;5052753;28;20086;-70
2022/06/29 02:35:56;;;;;;;15.55;7.35;;;;;;;-144.47;54.79;53183.81;5053098;28;20036;-72
2022/06/29 02:38:22;;;;;;;20.67;9.15;;;;;;;-144.47;54.88;53140.13;5052678;28;20390;-70
2022/06/29 02:40:47;;;;;;;15.00;7.55;;;;;;;-144.47;55.07;53165.94;5052884;28;20028;-68
2022/06/29 02:43:12;;;;;;;19.35;8.10;;;;;;;-144.47;55.05;53185.81;5053323;28;20545;-68
2022/06/29 02:45:38;;;;;;;16.13;7.70;;;;;;;-144.47;55.15;53187.78;5053209;28;20037;-69
2022/06/29 02:48:03;;;;;;;14.30;7.88;;;;;;;-144.47;55.08;53197.72;5053347;28;20528;-67
2022/06/29 02:50:29;;;;;;;16.13;7.68;;;;;;;-144.47;55.11;53158.00;5054406;28;20314;-70
2022/06/29 02:52:54;;;;;;;19.33;8.20;;;;;;;-144.47;55.26;53229.50;5055783;28;20539;-68
2022/06/29 02:55:20;;;;;;;15.88;8.07;;;;;;;-144.47;55.37;53193.75;5059980;28;20055;-70
2022/06/29 02:57:46;;;;;;;14.55;8.38;;;;;;;-144.47;55.42;53207.66;5056951;28;20091;-68
2022/06/29 03:00:13;;;;;;;17.90;7.97;;;;;;;-144.47;55.56;53150.06;5054506;28;20017;-70
2022/06/29 03:02:38;;;;;;;16.77;7.82;;;;;;;-144.47;55.75;53225.53;5052578;28;20029;-71
2022/06/29 03:05:04;;;;;;;29.23;7.72;;;;;;;-144.47;55.87;53179.84;5052994;28;20032;-68
2022/06/29 03:07:29;;;;;;;18.67;7.80;;;;;;;-144.47;55.94;53187.78;5051434;28;20025;-70
2022/06/29 03:09:54;;;;;;;17.83;7.90;;;;;;;-144.47;56.08;53150.06;5047548;28;20017;-68
2022/06/29 03:12:20;;;;;;;13.23;7.70;;;;;;;-144.47;56.24;53165.94;5053144;28;20068;-69
2022/06/29 03:14:45;;;;;;;18.25;8.10;;;;;;;-144.47;56.37;53181.84;5053266;28;20051;-68
2022/06/29 03:17:10;;;;;;;16.40;7.93;;;;;;;-144.47;56.32;53205.66;5051459;28;20040;-71
2022/06/29 03:19:35;;;;;;;20.77;8.32;;;;;;;-144.47;56.36;53193.75;5052196;28;20521;-69
2022/06/29 03:22:01;;;;;;;14.20;7.63;;;;;;;-144.47;56.29;53154.03;5051443;28;20040;-67
2022/06/29 03:24:26;;;;;;;21.75;7.78;;;;;;;-144.47;56.29;53193.75;5051802;28;20048;-69
2022/06/29 03:26:52;;;;;;;11.63;7.03;;;;;;;-144.47;56.29;53161.97;5051557;28;20090;-68
2022/06/29 03:29:17;;;;;;;15.77;7.63;;;;;;;-144.47;56.24;53189.78;5051688;28;20493;-71
2022/06/29 03:31:42;;;;;;;14.45;8.00;;;;;;;-144.47;56.24;53171.91;5051695;28;20240;-70
2022/06/29 03:34:08;;;;;;;16.00;7.50;;;;;;;-144.47;56.11;53169.91;5050995;28;20029;-71
2022/06/29 03:36:33;;;;;;;13.27;7.47;;;;;;;-144.47;55.89;53177.88;5051088;28;20021;-70
2022/06/29 03:38:59;;;;;;;12.02;7.30;;;;;;;-144.47;55.80;53158.00;5052205;28;20429;-71
2022/06/29 03:41:24;;;;;;;15.07;7.97;;;;;;;-144.47;55.74;53177.88;5051719;28;20021;-67
2022/06/29 03:43:49;;;;;;;11.25;6.57;;;;;;;-144.47;55.65;53154.03;5052092;28;20500;-71
2022/06/29 03:46:15;;;;;;;14.90;7.10;;;;;;;-144.47;55.59;53140.13;5051059;28;20025;-68
2022/06/29 03:48:40;;;;;;;14.20;7.15;;;;;;;-144.47;55.65;53163.97;5051234;28;20047;-68
2022/06/29 03:51:05;;;;;;;21.73;7.78;;;;;;;-144.47;55.60;53191.78;5049611;28;20059;-71
2022/06/29 03:53:31;;;;;;;13.85;7.30;;;;;;;-144.47;55.48;53193.75;5051457;28;20048;-70
2022/06/29 03:55:56;;;;;;;14.18;7.63;;;;;;;-144.47;55.53;53181.84;5049274;28;20029;-71
2022/06/29 03:58:22;;;;;;;21.67;7.60;;;;;;;-144.47;55.46;53201.69;5051173;28;20126;-71
2022/06/29 04:00:47;;;;;;;17.40;7.20;;;;;;;-144.47;55.45;53191.78;5050879;28;20090;-71
2022/06/29 04:03:13;;;;;;;20.73;8.60;;;;;;;-144.47;55.47;53185.81;5051208;28;20036;-68
2022/06/29 04:05:38;;;;;;;11.82;6.75;;;;;;;-144.47;55.33;53169.91;5051430;28;20025;-70
2022/06/29 04:08:04;;;;;;;15.82;7.68;;;;;;;-144.47;55.15;53211.63;5051101;28;20184;-68
2022/06/29 04:10:29;;;;;;;20.00;7.10;;;;;;;-144.47;55.20;53183.81;5050212;28;20040;-69
2022/06/29 04:12:55;;;;;;;11.55;7.10;;;;;;;-144.47;55.38;53177.88;5046779;28;20025;-71
2022/06/29 04:15:20;;;;;;;19.98;7.38;;;;;;;-144.47;55.13;53197.72;5050028;28;20048;-69
2022/06/29 04:17:46;;;;;;;15.73;7.30;;;;;;;-144.47;55.15;53144.09;5050677;28;20032;-69
2022/06/29 04:21:05;;;;;;;19.63;8.07;;;;;;;-144.47;55.27;53150.06;5050903;28;20048;-70
2022/06/29 04:23:00;;;;;;;19.25;7.22;;;;;;;-144.47;55.08;53185.81;5049541;28;20029;-70
2022/06/29 04:25:26;;;;;;;43.85;8.60;;;;;;;-144.47;55.25;53171.91;5050625;28;20501;-67
2022/06/29 04:27:51;;;;;;;17.27;8.13;;;;;;;-144.47;55.38;53148.06;5050045;28;20028;-68
2022/06/29 04:30:17;;;;;;;27.65;7.80;;;;;;;-144.47;55.43;53189.78;5050554;28;20025;-70
2022/06/29 04:32:42;;;;;;;14.02;7.47;;;;;;;-144.47;55.26;53173.88;5050284;28;20021;-67
2022/06/29 04:35:07;;;;;;;15.60;7.63;;;;;;;-144.47;55.47;53169.91;5050392;28;20393;-68
2022/06/29 04:37:32;;;;;;;19.70;8.32;;;;;;;-144.47;55.47;53146.09;5050020;28;20395;-66
2022/06/29 04:40:00;;;;;;;16.88;7.93;;;;;;;-144.47;55.54;53181.84;5051005;28;20454;-68
2022/06/29 04:42:26;;;;;;;14.43;7.25;;;;;;;-144.47;55.52;53154.03;5049895;28;20052;-68
2022/06/29 04:44:52;;;;;;;14.18;8.10;;;;;;;-144.47;55.65;53154.03;5049378;28;20117;-67
2022/06/29 04:47:18;;;;;;;14.68;7.30;;;;;;;-144.47;55.65;53179.84;5042693;28;20013;-67
2022/06/29 04:49:43;;;;;;;17.83;8.27;;;;;;;-144.47;55.42;53140.13;5048199;28;20394;-68
2022/06/29 04:52:08;;;;;;;12.68;8.23;;;;;;;-144.47;55.40;53156.00;5049286;28;20073;-68
2022/06/29 04:54:34;;;;;;;18.73;7.30;;;;;;;-144.47;55.45;53203.69;5049564;28;20021;-68
2022/06/29 04:56:59;;;;;;;19.52;7.65;;;;;;;-144.47;55.42;53160.00;5047274;28;20478;-69
2022/06/29 04:59:24;;;;;;;25.90;8.18;;;;;;;-144.47;55.55;53197.72;5038106;28;20025;-68
2022/06/29 05:01:50;;;;;;;17.85;8.23;;;;;;;-144.47;55.55;53154.03;5047885;28;20031;-68
2022/06/29 05:04:16;;;;;;;20.10;9.43;;;;;;;-144.47;55.31;53126.22;5048564;28;20021;-68
2022/06/29 05:06:41;;;;;;;19.55;8.40;;;;;;;-144.47;55.43;53195.75;5048794;28;20104;-67
2022/06/29 05:09:06;;;;;;;18.70;8.43;;;;;;;-144.47;55.28;53181.84;5043486;28;20100;-69
2022/06/29 05:11:32;;;;;;;20.05;8.50;;;;;;;-144.47;55.30;53154.03;5047948;28;20033;-67
2022/06/29 05:13:57;;;;;;;16.38;9.20;;;;;;;-144.47;55.37;53179.84;5048964;28;20025;-69
2022/06/29 05:16:23;;;;;;;19.65;8.48;;;;;;;-144.47;55.36;53160.00;5048446;28;20055;-67
2022/06/29 05:18:49;;;;;;;29.90;8.60;;;;;;;-144.47;55.13;53158.00;5048161;28;20116;-69
2022/06/29 05:21:15;;;;;;;15.38;8.95;;;;;;;-144.47;55.27;53158.00;5048366;28;20024;-65
2022/06/29 05:23:41;;;;;;;19.40;8.50;;;;;;;-144.47;55.34;53144.09;5047280;28;20017;-67
2022/06/29 05:26:07;;;;;;;17.30;8.45;;;;;;;-144.47;55.70;53205.66;5047722;28;20490;-69
2022/06/29 05:28:33;;;;;;;18.88;8.65;;;;;;;-144.47;55.78;53185.81;5048636;28;20025;-70
2022/06/29 05:30:59;;;;;;;22.95;9.80;;;;;;;-144.47;55.84;53144.09;5046551;28;20025;-67
2022/06/29 05:33:24;;;;;;;21.08;9.35;;;;;;;-144.47;55.79;53144.09;5047602;28;20027;-66
2022/06/29 05:35:49;;;;;;;27.27;10.60;;;;;;;-144.47;55.88;53158.00;5048630;28;20029;-66
2022/06/29 05:38:15;;;;;;;21.02;9.18;;;;;;;-144.47;56.12;53158.00;5048458;28;20028;-68
2022/06/29 05:40:42;;;;;;;17.85;9.63;;;;;;;-144.47;56.34;53185.81;5048498;28;20238;-66
2022/06/29 05:43:08;;;;;;;18.83;9.18;;;;;;;-144.47;56.54;53156.00;5035463;28;20159;-67
2022/06/29 05:45:33;;;;;;;31.08;9.18;;;;;;;-144.47;56.74;53169.91;5047646;28;20079;-67
2022/06/29 05:47:58;;;;;;;18.83;10.15;;;;;;;-144.47;56.52;53177.88;5048082;28;20478;-67
2022/06/29 05:50:24;;;;;;;19.38;9.50;;;;;;;-144.47;56.68;53136.16;5048583;28;20497;-66
2022/06/29 05:52:50;;;;;;;25.27;10.02;;;;;;;-144.47;56.64;53197.72;5047843;28;20052;-66
2022/06/29 05:55:16;;;;;;;29.60;10.35;;;;;;;-144.47;56.86;53181.84;5047775;28;20025;-70
2022/06/29 05:57:42;;;;;;;18.75;9.13;;;;;;;-144.47;56.78;53181.84;5045982;28;20035;-68
2022/06/29 06:00:10;;;;;;;23.27;11.40;;;;;;;-144.47;56.99;53167.94;5047444;28;20025;-68
2022/06/29 06:02:35;;;;;;;20.75;10.48;;;;;;;-144.47;57.02;53154.03;5047893;28;20025;-67
2022/06/29 06:05:01;;;;;;;17.77;10.38;;;;;;;-144.47;57.27;53177.88;5048433;28;20040;-69
2022/06/29 06:07:26;;;;;;;25.17;10.07;;;;;;;-144.47;57.51;53144.09;5047649;28;20505;-67
2022/06/29 06:09:52;;;;;;;21.55;10.48;;;;;;;-144.47;57.64;53160.00;5042547;28;20040;-68
2022/06/29 06:12:17;;;;;;;21.13;11.38;;;;;;;-144.47;57.75;53140.13;5047652;28;20031;-67
2022/06/29 06:14:44;;;;;;;20.83;11.02;;;;;;;-144.47;58.46;53179.84;5048565;28;20021;-69
2022/06/29 06:17:10;;;;;;;20.92;10.25;;;;;;;-144.47;58.53;53150.06;5046499;28;20071;-67
2022/06/29 06:19:35;;;;;;;24.67;11.65;;;;;;;-144.47;58.65;53187.78;5048688;28;20056;-69
2022/06/29 06:22:00;;;;;;;29.67;10.77;;;;;;;-144.47;58.67;53160.00;5048108;28;20031;-69
2022/06/29 06:24:26;;;;;;;23.92;11.57;;;;;;;-144.47;58.83;53193.75;5047818;28;20025;-68
2022/06/29 06:26:51;;;;;;;20.58;10.77;;;;;;;-144.47;59.02;53177.88;5046362;28;20083;-67
2022/06/29 06:29:17;;;;;;;27.15;10.32;;;;;;;-144.47;58.71;53211.63;5060927;22;20051;-66
2022/06/29 06:31:43;;;;;;;24.25;11.07;;;;;;;-144.47;58.68;53189.78;5048407;28;20104;-66
2022/06/29 06:34:08;;;;;;;18.70;11.13;;;;;;;-144.47;58.72;53169.91;5047686;28;20108;-64
2022/06/29 06:36:34;;;;;;;25.52;11.30;;;;;;;-144.47;58.57;53165.94;5047616;28;20105;-65
2022/06/29 06:38:59;;;;;;;25.50;11.85;;;;;;;-144.47;58.94;53183.81;5047592;28;20028;-63
2022/06/29 06:41:27;;;;;;;22.13;11.80;;;;;;;-144.47;58.99;53191.78;5049308;28;20021;-66
2022/06/29 06:43:55;;;;;;;23.63;12.02;;;;;;;-144.47;58.93;53152.03;5050235;28;20482;-70
2022/06/29 06:46:21;;;;;;;28.38;11.82;;;;;;;-144.47;59.05;53154.03;5049137;28;20032;-69
2022/06/29 06:48:48;;;;;;;24.23;12.18;;;;;;;-144.47;58.75;53203.69;5049150;28;20107;-66
2022/06/29 06:51:14;;;;;;;23.20;12.25;;;;;;;-144.47;58.53;53197.72;5048882;28;20115;-68
2022/06/29 06:53:39;;;;;;;19.98;11.02;;;;;;;-144.47;58.21;53160.00;5049544;28;20167;-64
2022/06/29 06:56:06;;;;;;;28.48;12.45;;;;;;;-144.47;58.09;53203.69;5048809;28;20044;-66
2022/06/29 06:58:32;;;;;;;20.95;11.65;;;;;;;-144.47;57.58;53185.81;5048562;28;20029;-68
2022/06/29 07:00:57;;;;;;;24.65;12.57;;;;;;;-144.47;57.24;53154.03;5048401;28;20094;-63
2022/06/29 07:03:23;;;;;;;26.88;12.35;;;;;;;-144.47;56.99;53150.06;5048642;28;20089;-67
2022/06/29 07:05:48;;;;;;;36.28;11.63;;;;;;;-144.47;56.93;53161.97;5048280;28;20112;-67
2022/06/29 07:08:14;;;;;;;28.40;12.65;;;;;;;-144.47;57.04;53181.84;5052860;28;20044;-67
2022/06/29 07:10:39;;;;;;;26.30;11.85;;;;;;;-144.47;57.36;53181.84;5047507;28;20536;-66
2022/06/29 07:13:04;;;;;;;26.58;11.52;;;;;;;-144.47;57.50;53138.13;5052224;28;20033;-66
2022/06/29 07:15:30;;;;;;;24.85;12.10;;;;;;;-144.47;57.65;53187.78;5052351;28;20036;-65
2022/06/29 07:17:56;;;;;;;23.38;11.20;;;;;;;-144.47;57.60;53163.97;5050714;28;20029;-66
2022/06/29 07:20:21;;;;;;;27.38;12.30;;;;;;;-144.47;57.58;53185.81;5051246;28;20027;-66
2022/06/29 07:22:47;;;;;;;29.90;11.63;;;;;;;-144.47;57.53;53160.00;5051635;28;20302;-65
2022/06/29 07:25:12;;;;;;;24.63;10.63;;;;;;;-144.47;57.62;53148.06;5051235;28;20087;-66
2022/06/29 07:27:37;;;;;;;26.00;10.98;;;;;;;-144.47;57.58;53152.03;5052326;28;20052;-67
2022/06/29 07:30:04;;;;;;;20.85;11.00;;;;;;;-144.47;57.64;53169.91;5050968;28;20029;-66
2022/06/29 07:32:30;;;;;;;24.67;12.18;;;;;;;-144.47;58.33;53187.78;5052418;28;20074;-68
2022/06/29 07:35:16;;;;;;;45.20;12.40;;;;;;;-144.47;58.34;53189.78;5052683;28;20037;-73
2022/06/29 07:37:42;;;;;;;26.08;11.07;;;;;;;-144.47;58.14;53185.81;5051197;28;20528;-68
2022/06/29 07:40:08;;;;;;;20.80;10.63;;;;;;;-144.47;57.98;53136.16;5050786;28;20029;-66
2022/06/29 07:42:35;;;;;;;21.02;11.02;;;;;;;-144.47;58.58;53148.06;5051948;28;20031;-66
2022/06/29 07:45:02;;;;;;;22.98;9.68;;;;;;;-144.47;58.11;53171.91;5051829;28;20397;-63
2022/06/29 07:47:28;;;;;;;18.17;9.50;;;;;;;-144.47;57.68;53175.88;5051194;28;20021;-66
2022/06/29 07:49:54;;;;;;;23.15;10.13;;;;;;;-144.47;58.66;53158.00;5051706;28;20401;-65
2022/06/29 07:52:19;;;;;;;15.20;8.48;;;;;;;-144.47;58.24;53179.84;5051209;28;20036;-64
2022/06/29 07:54:45;;;;;;;17.88;8.88;;;;;;;-144.47;58.77;53128.22;5051665;28;20031;-67
2022/06/29 07:57:10;;;;;;;17.33;9.45;;;;;;;-144.47;58.02;53144.09;5048831;28;20067;-67
2022/06/29 07:59:35;;;;;;;19.48;9.10;;;;;;;-144.47;57.64;53209.66;5048922;28;20044;-64
2022/06/29 08:02:01;;;;;;;17.17;8.50;;;;;;;-144.47;57.35;53160.00;5050699;28;20056;-63
2022/06/29 08:04:26;;;;;;;20.23;8.50;;;;;;;-144.47;56.91;53150.06;5051216;28;20075;-65
2022/06/29 08:06:51;;;;;;;17.92;8.80;;;;;;;-144.47;57.76;53171.91;5050483;28;20086;-66
2022/06/29 08:09:17;;;;;;;19.38;8.52;;;;;;;-144.47;57.10;53165.94;5050636;28;20079;-64
2022/06/29 08:11:42;;;;;;;24.15;9.10;;;;;;;-144.47;57.21;53177.88;5050782;28;20021;-65
2022/06/29 08:14:07;;;;;;;20.10;8.48;;;;;;;-144.47;56.64;53130.19;5051081;28;20498;-64
2022/06/29 08:16:33;;;;;;;17.23;8.77;;;;;;;-144.47;56.94;53163.97;5050742;28;20100;-67
2022/06/29 08:18:58;;;;;;;22.80;7.70;;;;;;;-144.47;56.36;53175.88;5050600;28;20048;-66
2022/06/29 08:21:23;;;;;;;13.05;7.57;;;;;;;-144.47;56.84;53251.34;5051042;28;20055;-66
2022/06/29 08:23:49;;;;;;;15.10;7.35;;;;;;;-144.47;57.26;53187.78;5050678;28;20099;-67
2022/06/29 08:26:14;;;;;;;17.23;7.68;;;;;;;-144.47;58.13;53173.88;5050506;28;20044;-67
2022/06/29 08:28:39;;;;;;;37.28;8.00;;;;;;;-144.47;57.39;53173.88;5051183;28;20029;-64
2022/06/29 08:31:05;;;;;;;15.77;7.32;;;;;;;-144.47;56.85;53173.88;5050431;28;20052;-66
2022/06/29 08:33:30;;;;;;;13.43;5.95;;;;;;;-144.47;56.99;53146.09;5049510;28;20126;-65
2022/06/29 08:35:55;;;;;;;20.30;6.57;;;;;;;-144.47;57.44;53173.88;5048638;28;20032;-66
2022/06/29 08:38:21;;;;;;;17.60;6.95;;;;;;;-144.47;57.31;53152.03;5050483;28;20295;-64
2022/06/29 08:40:48;;;;;;;21.42;7.18;;;;;;;-144.47;57.82;53179.84;5050660;28;20116;-63
2022/06/29 08:43:16;;;;;;;18.73;6.97;;;;;;;-144.47;57.88;53199.72;5050603;28;20025;-65
2022/06/29 08:45:44;;;;;;;17.35;7.25;;;;;;;-144.47;57.73;53158.00;5044083;28;20375;-66
2022/06/29 08:48:11;;;;;;;32.42;7.82;;;;;;;-144.47;57.82;53173.88;5050518;28;20059;-65
2022/06/29 08:50:41;;;;;;;14.55;6.57;;;;;;;-144.47;57.44;53154.03;5049632;28;20059;-67
2022/06/29 08:53:07;;;;;;;11.68;6.70;;;;;;;-144.47;57.63;53193.75;5051290;28;20051;-66
2022/06/29 08:55:41;;;;;;;19.10;7.10;;;;;;;-144.47;57.06;53171.91;5051091;28;20052;-67
2022/06/29 08:58:07;;;;;;;13.80;6.65;;;;;;;-144.47;56.92;53195.75;5049726;28;20029;-66
2022/06/29 09:00:36;;;;;;;14.25;6.32;;;;;;;-144.47;56.88;53199.72;5049793;28;20528;-67
2022/06/29 09:03:05;;;;;;;18.70;5.93;;;;;;;-144.47;56.69;53171.91;5049908;28;20593;-65
2022/06/29 09:05:31;;;;;;;17.38;7.13;;;;;;;-144.47;56.67;53213.63;5049645;28;20315;-65
2022/06/29 09:07:57;;;;;;;14.85;6.72;;;;;;;-144.47;56.04;53173.88;5049685;28;20021;-67
2022/06/29 09:10:24;;;;;;;18.55;5.90;;;;;;;-144.47;55.57;53203.69;5049222;28;20044;-66
2022/06/29 09:12:52;;;;;;;18.25;6.65;;;;;;;-144.47;55.27;53161.97;5049692;28;20021;-64
2022/06/29 09:15:30;;;;;;;12.52;6.28;;;;;;;-144.47;55.43;53201.69;5050230;28;20457;-66
2022/06/29 09:17:55;;;;;;;17.05;6.22;;;;;;;-144.47;55.31;53156.00;5049552;28;20033;-67
2022/06/29 09:20:20;;;;;;;17.88;7.15;;;;;;;-144.47;55.16;53191.78;5049653;28;20036;-66
2022/06/29 09:22:54;;;;;;;16.20;6.85;;;;;;;-144.47;55.15;53203.69;5049299;28;20025;-68
2022/06/29 09:25:27;;;;;;;13.98;6.32;;;;;;;-144.47;55.55;53169.91;5042594;28;20028;-65
2022/06/29 09:27:55;;;;;;;18.90;6.38;;;;;;;-144.47;55.75;53195.75;5047956;28;20060;-67
2022/06/29 09:30:35;;;;;;;13.68;6.63;;;;;;;-144.47;55.38;53173.88;5048470;28;20523;-65
2022/06/29 09:33:04;;;;;;;21.20;6.45;;;;;;;-144.47;55.93;53167.94;5049598;28;20418;-66
2022/06/29 09:35:30;;;;;;;19.58;5.90;;;;;;;-144.47;55.38;53203.69;5049848;28;20501;-67
2022/06/29 09:38:24;;;;;;;13.40;5.95;;;;;;;-144.47;55.37;53167.94;5047999;28;20025;-65
2022/06/29 09:41:02;;;;;;;10.85;5.13;;;;;;;-144.47;54.71;53197.72;5049566;28;20044;-66
2022/06/29 09:43:29;;;;;;;12.90;5.57;;;;;;;-144.47;54.40;53163.97;5049584;28;20580;-65
2022/06/29 09:45:55;;;;;;;12.55;5.35;;;;;;;-144.47;54.56;53171.91;5047778;28;20116;-65
2022/06/29 09:48:25;;;;;;;17.17;5.57;;;;;;;-144.47;54.02;53142.09;5049140;28;20291;-65
2022/06/29 09:50:52;;;;;;;15.98;5.85;;;;;;;-144.47;54.05;53181.84;5049348;28;20428;-67
2022/06/29 09:53:22;;;;;;;14.65;5.82;;;;;;;-144.47;53.96;53169.91;5049760;28;20446;-66
2022/06/29 09:55:48;;;;;;;12.38;5.57;;;;;;;-144.47;53.94;53199.72;5049085;28;20462;-67
2022/06/29 09:58:18;;;;;;;14.43;6.15;;;;;;;-144.47;54.15;53193.75;5049238;28;20041;-66
2022/06/29 10:03:32;;;;;;;11.45;5.80;;;;;;;-144.47;53.46;53193.75;5049050;28;20028;-68
2022/06/29 10:06:05;;;;;;;14.53;5.80;;;;;;;-144.47;53.31;53175.88;5049512;28;20040;-68
2022/06/29 10:08:35;;;;;;;20.05;5.85;;;;;;;-144.47;53.29;53171.91;5046075;28;20037;-68
2022/06/29 10:13:39;;;;;;;15.32;5.78;;;;;;;-144.47;52.79;53173.88;5039048;28;20071;-68
2022/06/29 10:14:00;;;;;;;14.50;6.10;;;;;;;-144.47;52.60;53160.00;5049163;28;20166;-67
2022/06/29 10:16:34;;;;;;;13.20;5.53;;;;;;;-144.47;52.38;53156.00;5048534;28;20086;-68
2022/06/29 10:19:37;;;;;;;15.15;5.97;;;;;;;-144.47;52.08;53108.34;5047549;28;20021;-65
2022/06/29 10:22:02;;;;;;;10.05;5.82;;;;;;;-144.47;51.43;53167.94;5041524;28;20022;-67
2022/06/29 10:24:28;;;;;;;19.40;6.53;;;;;;;-144.47;51.29;53116.28;5043761;28;20071;-65
2022/06/29 10:26:53;;;;;;;13.88;6.25;;;;;;;-144.47;51.64;53158.00;5048536;28;20055;-66
2022/06/29 10:29:19;;;;;;;14.93;6.85;;;;;;;-144.47;52.21;53171.91;5042583;28;20116;-67
2022/06/29 10:31:54;;;;;;;17.70;6.63;;;;;;;-144.47;51.80;53140.13;5043113;28;20025;-67
2022/06/29 10:34:28;;;;;;;22.65;6.85;;;;;;;-144.47;51.26;53175.88;5042514;28;20045;-65
2022/06/29 10:37:03;;;;;;;13.00;5.97;;;;;;;-144.47;50.23;53144.09;5046549;28;20041;-65
2022/06/29 10:39:48;;;;;;;20.48;7.45;;;;;;;-144.47;50.18;53183.81;5046712;28;20492;-67
2022/06/29 10:45:08;;;;;;;16.55;8.10;;;;;;;-144.47;50.05;53161.97;5049236;28;20350;-64
2022/06/29 10:47:34;;;;;;;14.63;7.10;;;;;;;-144.47;49.90;53150.06;5046689;28;20079;-68
2022/06/29 10:50:15;;;;;;;24.90;8.43;;;;;;;-144.47;49.44;53161.97;5052396;28;20021;-65
2022/06/29 10:52:42;;;;;;;21.05;7.75;;;;;;;-144.47;49.13;53161.97;5052368;28;20398;-67
2022/06/29 10:55:08;;;;;;;27.98;9.07;;;;;;;-144.47;48.90;53110.31;5052210;28;20367;-68
2022/06/29 10:57:34;;;;;;;19.00;7.85;;;;;;;-144.47;48.82;53126.22;5052196;28;20021;-67
2022/06/29 10:59:59;;;;;;;16.23;8.20;;;;;;;-144.47;48.61;53167.94;5053264;28;20032;-66
2022/06/29 11:02:25;;;;;;;20.23;8.35;;;;;;;-144.47;48.66;53106.34;5052275;28;20091;-67
2022/06/29 11:04:50;;;;;;;22.33;9.18;;;;;;;-144.47;47.52;53138.13;5052293;28;20048;-68
2022/06/29 11:12:53;;;;;;;17.48;8.90;;;;;;;-144.47;47.78;53114.31;5052994;28;20112;-67
2022/06/29 11:15:48;;;;;;;28.70;9.18;;;;;;;-144.47;47.64;53116.28;5052636;28;20029;-66
2022/06/29 11:18:15;;;;;;;16.42;8.02;;;;;;;-144.47;46.78;53102.38;5051515;28;20107;-65
2022/06/29 11:20:44;;;;;;;22.23;9.37;;;;;;;-144.47;46.02;53082.53;5051093;28;20041;-66
2022/06/29 11:23:14;;;;;;;20.80;8.55;;;;;;;-144.47;46.06;53094.44;5051842;28;20443;-64